createdAt,value
2019-04-23T00:01:14.768Z,136.00
2019-04-23T00:02:03.760Z,160.00
2019-04-23T00:03:10.086Z,208.00
2019-04-23T00:04:07.117Z,252.00
2019-04-23T00:05:02.088Z,272.00
2019-04-23T00:06:18.692Z,264.00
2019-04-23T00:07:17.994Z,216.00
2019-04-23T00:09:17.740Z,160.00
2019-04-23T00:10:13.920Z,152.00
2019-04-23T00:11:05.669Z,152.00
2019-04-23T00:12:13.311Z,148.00
2019-04-23T00:12:59.340Z,148.00
2019-04-23T00:14:06.061Z,148.00
2019-04-23T00:15:08.853Z,156.00
2019-04-23T00:16:12.858Z,144.00
2019-04-23T00:17:06.823Z,148.00
2019-04-23T00:18:03.128Z,160.00
2019-04-23T00:18:59.354Z,168.00
2019-04-23T00:20:10.118Z,164.00
2019-04-23T00:21:11.242Z,164.00
2019-04-23T00:22:07.302Z,144.00
2019-04-23T00:23:05.053Z,136.00
2019-04-23T00:24:11.691Z,140.00
2019-04-23T00:26:26.832Z,144.00
2019-04-23T00:27:15.627Z,156.00
2019-04-23T00:29:21.103Z,188.00
2019-04-23T00:30:04.363Z,196.00
2019-04-23T00:31:15.248Z,204.00
2019-04-23T00:32:10.363Z,228.00
2019-04-23T00:33:07.348Z,252.00
2019-04-23T00:34:30.792Z,248.00
2019-04-23T00:35:05.901Z,240.00
2019-04-23T00:36:17.430Z,236.00
2019-04-23T00:37:11.795Z,220.00
2019-04-23T00:38:13.976Z,212.00
2019-04-23T00:39:06.295Z,212.00
2019-04-23T00:40:03.015Z,220.00
2019-04-23T00:41:04.256Z,224.00
2019-04-23T00:42:10.242Z,260.00
2019-04-23T00:43:08.596Z,284.00
2019-04-23T00:45:00.219Z,260.00
2019-04-23T00:46:02.328Z,244.00
2019-04-23T00:47:02.605Z,244.00
2019-04-23T00:48:05.991Z,232.00
2019-04-23T00:49:13.633Z,240.00
2019-04-23T00:50:12.373Z,216.00
2019-04-23T00:50:58.517Z,200.00
2019-04-23T00:52:09.568Z,196.00
2019-04-23T00:53:04.058Z,196.00
2019-04-23T00:54:06.392Z,196.00
2019-04-23T00:55:12.900Z,192.00
2019-04-23T00:56:25.274Z,204.00
2019-04-23T00:57:13.439Z,208.00
2019-04-23T00:58:12.845Z,212.00
2019-04-23T00:59:08.283Z,216.00
2019-04-23T01:00:10.512Z,228.00
2019-04-23T01:01:02.478Z,240.00
2019-04-23T01:02:26.357Z,236.00
2019-04-23T01:03:05.869Z,252.00
2019-04-23T01:04:10.238Z,268.00
2019-04-23T01:05:14.365Z,260.00
2019-04-23T01:06:07.769Z,284.00
2019-04-23T01:07:04.574Z,272.00
2019-04-23T01:08:08.282Z,244.00
2019-04-23T01:09:10.449Z,212.00
2019-04-23T01:10:10.128Z,200.00
2019-04-23T01:11:13.402Z,200.00
2019-04-23T01:12:07.413Z,196.00
2019-04-23T01:13:10.515Z,172.00
2019-04-23T01:14:18.037Z,168.00
2019-04-23T01:15:04.684Z,180.00
2019-04-23T01:16:06.036Z,184.00
2019-04-23T01:17:08.790Z,192.00
2019-04-23T01:18:14.376Z,176.00
2019-04-23T01:18:59.468Z,164.00
2019-04-23T01:20:01.679Z,176.00
2019-04-23T01:20:54.371Z,164.00
2019-04-23T01:21:45.376Z,148.00
2019-04-23T01:22:46.339Z,144.00
2019-04-23T01:23:53.869Z,160.00
2019-04-23T01:24:46.675Z,208.00
2019-04-23T01:25:54.595Z,220.00
2019-04-23T01:27:30.352Z,204.00
2019-04-23T01:28:07.682Z,168.00
2019-04-23T01:29:14.109Z,148.00
2019-04-23T01:30:31.289Z,156.00
2019-04-23T01:31:16.648Z,156.00
2019-04-23T01:32:05.874Z,160.00
2019-04-23T01:33:15.408Z,184.00
2019-04-23T01:34:13.427Z,196.00
2019-04-23T01:37:15.531Z,272.00
2019-04-23T01:38:11.135Z,264.00
2019-04-23T01:39:11.632Z,248.00
2019-04-23T01:40:12.168Z,240.00
2019-04-23T01:41:16.272Z,236.00
2019-04-23T01:42:24.893Z,228.00
2019-04-23T01:43:07.727Z,220.00
2019-04-23T01:44:14.242Z,228.00
2019-04-23T01:45:24.602Z,256.00
2019-04-23T01:47:12.458Z,236.00
2019-04-23T01:48:04.758Z,212.00
2019-04-23T01:49:18.390Z,196.00
2019-04-23T01:50:16.860Z,220.00
2019-04-23T01:51:14.325Z,244.00
2019-04-23T01:53:14.983Z,252.00
2019-04-23T01:54:12.409Z,264.00
2019-04-23T01:55:15.506Z,252.00
2019-04-23T01:56:14.467Z,220.00
2019-04-23T01:57:16.777Z,196.00
2019-04-23T01:58:29.072Z,188.00
2019-04-23T01:59:16.668Z,208.00
2019-04-23T02:00:16.118Z,256.00
2019-04-23T02:01:11.600Z,344.00
2019-04-23T02:02:14.305Z,436.00
2019-04-23T02:03:26.715Z,460.00
2019-04-23T02:04:16.706Z,536.00
2019-04-23T02:05:15.657Z,596.00
2019-04-23T02:06:13.108Z,588.00
2019-04-23T02:07:11.404Z,584.00
2019-04-23T02:08:15.665Z,580.00
2019-04-23T02:09:13.772Z,596.00
2019-04-23T02:10:22.201Z,584.00
2019-04-23T02:11:28.170Z,544.00
2019-04-23T02:12:15.673Z,536.00
2019-04-23T02:13:16.392Z,568.00
2019-04-23T02:14:16.365Z,620.00
2019-04-23T02:15:28.345Z,648.00
2019-04-23T02:16:10.489Z,640.00
2019-04-23T02:17:36.249Z,648.00
2019-04-23T02:18:18.173Z,664.00
2019-04-23T02:19:21.964Z,700.00
2019-04-23T02:20:19.259Z,712.00
2019-04-23T02:21:12.094Z,712.00
2019-04-23T02:22:21.680Z,692.00
2019-04-23T02:24:14.425Z,740.00
2019-04-23T02:25:15.510Z,752.00
2019-04-23T02:27:16.988Z,728.00
2019-04-23T02:28:16.606Z,676.00
2019-04-23T02:29:26.645Z,676.00
2019-04-23T02:30:33.750Z,668.00
2019-04-23T02:32:19.078Z,684.00
2019-04-23T02:33:31.829Z,704.00
2019-04-23T02:34:31.062Z,736.00
2019-04-23T02:37:22.132Z,812.00
2019-04-23T02:38:35.543Z,784.00
2019-04-23T02:39:19.814Z,724.00
2019-04-23T02:40:34.780Z,684.00
2019-04-23T02:41:19.878Z,696.00
2019-04-23T02:42:30.779Z,744.00
2019-04-23T02:43:16.116Z,784.00
2019-04-23T02:45:15.960Z,836.00
2019-04-23T02:46:11.653Z,844.00
2019-04-23T02:48:30.827Z,908.00
2019-04-23T02:51:22.117Z,884.00
2019-04-23T02:53:31.819Z,824.00
2019-04-23T02:54:38.439Z,776.00
2019-04-23T02:57:13.155Z,920.00
2019-04-23T02:58:20.443Z,996.00
2019-04-23T02:59:42.338Z,1060.00
2019-04-23T03:00:35.958Z,1120.00
2019-04-23T03:02:37.333Z,1088.00
2019-04-23T03:03:28.112Z,884.00
2019-04-23T03:04:26.861Z,680.00
2019-04-23T03:05:19.847Z,640.00
2019-04-23T03:06:18.968Z,684.00
2019-04-23T03:07:24.404Z,720.00
2019-04-23T03:08:31.046Z,684.00
2019-04-23T03:09:23.626Z,604.00
2019-04-23T03:10:23.997Z,560.00
2019-04-23T03:12:27.089Z,508.00
2019-04-23T03:13:28.876Z,480.00
2019-04-23T03:14:23.232Z,488.00
2019-04-23T03:15:36.194Z,568.00
2019-04-23T03:16:31.731Z,676.00
2019-04-23T03:17:15.039Z,736.00
2019-04-23T03:18:35.193Z,796.00
2019-04-23T03:19:18.793Z,860.00
2019-04-23T03:20:23.366Z,928.00
2019-04-23T03:21:27.124Z,992.00
2019-04-23T03:23:41.883Z,1040.00
2019-04-23T03:24:33.443Z,1096.00
2019-04-23T03:25:27.959Z,1108.00
2019-04-23T03:28:29.669Z,828.00
2019-04-23T03:30:53.123Z,696.00
2019-04-23T03:35:10.270Z,576.00
2019-04-23T03:36:56.447Z,564.00
2019-04-23T03:39:17.774Z,532.00
2019-04-23T03:40:13.775Z,552.00
2019-04-23T03:42:18.113Z,568.00
2019-04-23T03:43:26.009Z,588.00
2019-04-23T03:44:22.378Z,604.00
2019-04-23T03:45:33.981Z,636.00
2019-04-23T03:47:30.547Z,680.00
2019-04-23T03:48:26.553Z,676.00
2019-04-23T03:49:12.942Z,680.00
2019-04-23T03:50:28.430Z,720.00
2019-04-23T03:53:36.246Z,752.00
2019-04-23T03:54:39.933Z,748.00
2019-04-23T03:55:32.738Z,732.00
2019-04-23T03:56:34.549Z,724.00
2019-04-23T03:57:24.594Z,780.00
2019-04-23T03:58:39.119Z,804.00
2019-04-23T03:59:32.328Z,824.00
2019-04-23T04:00:35.247Z,816.00
2019-04-23T04:03:45.810Z,704.00
2019-04-23T04:04:32.946Z,684.00
2019-04-23T04:05:32.856Z,672.00
2019-04-23T04:07:28.799Z,684.00
2019-04-23T04:10:21.687Z,712.00
2019-04-23T04:12:29.399Z,696.00
2019-04-23T04:15:48.917Z,636.00
2019-04-23T04:16:19.384Z,624.00
2019-04-23T04:17:20.155Z,608.00
2019-04-23T04:18:30.941Z,544.00
2019-04-23T04:20:35.293Z,612.00
2019-04-23T04:21:27.965Z,700.00
2019-04-23T04:22:28.397Z,760.00
2019-04-23T04:24:29.678Z,996.00
2019-04-23T04:25:26.918Z,1068.00
2019-04-23T04:26:41.993Z,1072.00
2019-04-23T04:27:27.015Z,1072.00
2019-04-23T04:29:35.653Z,1144.00
2019-04-23T04:30:27.355Z,1064.00
2019-04-23T04:31:21.874Z,988.00
2019-04-23T04:32:22.128Z,976.00
2019-04-23T04:34:43.800Z,1112.00
2019-04-23T04:35:24.952Z,1100.00
2019-04-23T04:38:36.369Z,976.00
2019-04-23T04:40:39.543Z,952.00
2019-04-23T04:41:29.064Z,1084.00
2019-04-23T04:42:14.770Z,1120.00
2019-04-23T04:46:30.561Z,852.00
2019-04-23T04:47:28.558Z,836.00
2019-04-23T04:48:25.373Z,816.00
2019-04-23T04:49:20.095Z,868.00
2019-04-23T04:50:26.719Z,888.00
2019-04-23T04:51:35.334Z,888.00
2019-04-23T04:52:39.901Z,900.00
2019-04-23T04:54:21.190Z,900.00
2019-04-23T04:55:21.287Z,852.00
2019-04-23T04:57:30.686Z,820.00
2019-04-23T04:58:23.845Z,884.00
2019-04-23T05:03:23.874Z,924.00
2019-04-23T05:04:28.512Z,960.00
2019-04-23T05:06:02.443Z,1012.00
2019-04-23T05:06:44.437Z,1100.00
2019-04-23T05:08:28.931Z,1124.00
2019-04-23T05:10:40.782Z,1148.00
2019-04-23T05:12:23.010Z,1108.00
2019-04-23T05:14:25.225Z,1128.00
2019-04-23T05:15:16.552Z,1144.00
2019-04-23T05:16:19.330Z,1020.00
2019-04-23T05:17:23.763Z,1060.00
2019-04-23T05:19:29.353Z,1176.00
2019-04-23T05:20:22.467Z,1184.00
2019-04-23T05:21:20.243Z,1216.00
2019-04-23T05:22:46.550Z,1240.00
2019-04-23T05:24:23.207Z,1088.00
2019-04-23T05:25:12.552Z,1004.00
2019-04-23T05:26:23.953Z,964.00
2019-04-23T05:27:17.874Z,988.00
2019-04-23T05:28:20.395Z,928.00
2019-04-23T05:29:41.482Z,912.00
2019-04-23T05:30:29.785Z,892.00
2019-04-23T05:31:29.371Z,892.00
2019-04-23T05:32:19.459Z,808.00
2019-04-23T05:33:18.430Z,764.00
2019-04-23T05:34:14.834Z,748.00
2019-04-23T05:35:28.633Z,724.00
2019-04-23T05:37:26.311Z,776.00
2019-04-23T05:38:31.467Z,816.00
2019-04-23T05:39:24.718Z,796.00
2019-04-23T05:40:32.212Z,800.00
2019-04-23T05:41:26.957Z,856.00
2019-04-23T05:42:19.815Z,856.00
2019-04-23T05:43:20.958Z,820.00
2019-04-23T05:44:22.337Z,812.00
2019-04-23T05:45:16.662Z,808.00
2019-04-23T05:47:25.614Z,784.00
2019-04-23T05:48:19.797Z,768.00
2019-04-23T05:49:18.653Z,768.00
2019-04-23T05:50:26.014Z,792.00
2019-04-23T05:51:23.676Z,828.00
2019-04-23T05:52:16.141Z,856.00
2019-04-23T05:53:21.596Z,872.00
2019-04-23T05:54:18.954Z,884.00
2019-04-23T05:55:13.280Z,900.00
2019-04-23T05:57:13.991Z,920.00
2019-04-23T05:58:23.547Z,940.00
2019-04-23T05:59:16.368Z,960.00
2019-04-23T06:00:21.320Z,996.00
2019-04-23T06:01:38.041Z,1048.00
2019-04-23T06:02:20.781Z,1072.00
2019-04-23T06:03:32.927Z,1112.00
2019-04-23T06:05:18.465Z,1192.00
2019-04-23T06:06:20.890Z,1184.00
2019-04-23T06:07:28.679Z,1084.00
2019-04-23T06:08:21.592Z,1016.00
2019-04-23T06:09:18.907Z,976.00
2019-04-23T06:10:18.138Z,964.00
2019-04-23T06:11:19.251Z,944.00
2019-04-23T06:12:13.577Z,888.00
2019-04-23T06:13:18.587Z,860.00
2019-04-23T06:14:18.936Z,872.00
2019-04-23T06:15:20.317Z,840.00
2019-04-23T06:16:24.396Z,800.00
2019-04-23T06:17:21.541Z,788.00
2019-04-23T06:18:28.204Z,804.00
2019-04-23T06:20:18.198Z,852.00
2019-04-23T06:21:15.667Z,836.00
2019-04-23T06:22:26.874Z,836.00
2019-04-23T06:23:26.944Z,844.00
2019-04-23T06:24:29.221Z,880.00
2019-04-23T06:25:30.969Z,888.00
2019-04-23T06:27:24.354Z,888.00
2019-04-23T06:28:22.419Z,876.00
2019-04-23T06:29:25.616Z,924.00
2019-04-23T06:30:26.611Z,1008.00
2019-04-23T06:31:24.438Z,1124.00
2019-04-23T06:32:19.328Z,1044.00
2019-04-23T06:33:21.075Z,1072.00
2019-04-23T06:34:24.762Z,1080.00
2019-04-23T06:35:16.541Z,1104.00
2019-04-23T06:36:19.530Z,1144.00
2019-04-23T06:37:18.428Z,1228.00
2019-04-23T06:39:21.379Z,1156.00
2019-04-23T06:40:22.287Z,1096.00
2019-04-23T06:41:23.353Z,1084.00
2019-04-23T06:42:21.117Z,1048.00
2019-04-23T06:43:18.360Z,1032.00
2019-04-23T06:44:24.120Z,1048.00
2019-04-23T06:45:14.520Z,1056.00
2019-04-23T06:46:21.262Z,1092.00
2019-04-23T06:47:29.261Z,1128.00
2019-04-23T06:48:23.678Z,1088.00
2019-04-23T06:49:23.674Z,1084.00
2019-04-23T06:50:11.765Z,1048.00
2019-04-23T06:51:30.446Z,1024.00
2019-04-23T06:52:19.081Z,1024.00
2019-04-23T06:53:14.493Z,1020.00
2019-04-23T06:54:18.683Z,992.00
2019-04-23T06:55:20.384Z,952.00
2019-04-23T06:56:17.690Z,916.00
2019-04-23T06:57:22.477Z,860.00
2019-04-23T06:58:26.020Z,800.00
2019-04-23T06:59:19.950Z,772.00
2019-04-23T07:00:25.892Z,744.00
2019-04-23T07:01:19.215Z,728.00
2019-04-23T07:02:21.004Z,728.00
2019-04-23T07:03:24.710Z,732.00
2019-04-23T07:04:17.017Z,736.00
2019-04-23T07:05:39.332Z,736.00
2019-04-23T07:06:25.011Z,716.00
2019-04-23T07:08:30.649Z,672.00
2019-04-23T07:09:30.463Z,636.00
2019-04-23T07:10:23.812Z,616.00
2019-04-23T07:11:38.319Z,612.00
2019-04-23T07:12:25.680Z,624.00
2019-04-23T07:13:29.566Z,628.00
2019-04-23T07:14:17.066Z,628.00
2019-04-23T07:15:34.981Z,628.00
2019-04-23T07:16:14.692Z,620.00
2019-04-23T07:17:13.294Z,620.00
2019-04-23T07:18:16.617Z,632.00
2019-04-23T07:19:25.067Z,632.00
2019-04-23T07:20:20.122Z,636.00
2019-04-23T07:21:27.776Z,636.00
2019-04-23T07:22:23.575Z,632.00
2019-04-23T07:23:19.410Z,628.00
2019-04-23T07:24:16.506Z,624.00
2019-04-23T07:25:20.387Z,612.00
2019-04-23T07:26:29.781Z,608.00
2019-04-23T07:27:22.872Z,608.00
2019-04-23T07:28:27.531Z,596.00
2019-04-23T07:29:22.750Z,588.00
2019-04-23T07:30:24.407Z,580.00
2019-04-23T07:31:26.592Z,572.00
2019-04-23T07:32:19.575Z,564.00
2019-04-23T07:33:21.697Z,556.00
2019-04-23T07:34:18.091Z,548.00
2019-04-23T07:35:18.507Z,540.00
2019-04-23T07:36:24.239Z,540.00
2019-04-23T07:37:17.559Z,532.00
2019-04-23T07:38:31.498Z,524.00
2019-04-23T07:39:23.322Z,532.00
2019-04-23T07:41:28.557Z,564.00
2019-04-23T07:42:37.266Z,580.00
2019-04-23T07:43:20.196Z,588.00
2019-04-23T07:44:33.178Z,588.00
2019-04-23T07:45:28.003Z,592.00
2019-04-23T07:46:29.695Z,596.00
2019-04-23T07:47:20.375Z,600.00
2019-04-23T07:49:23.748Z,612.00
2019-04-23T07:50:35.575Z,616.00
2019-04-23T07:51:19.784Z,616.00
2019-04-23T07:52:24.281Z,620.00
2019-04-23T07:54:25.787Z,644.00
2019-04-23T07:55:27.015Z,640.00
2019-04-23T07:56:21.427Z,620.00
2019-04-23T07:57:21.987Z,620.00
2019-04-23T07:58:33.621Z,696.00
2019-04-23T07:59:25.309Z,624.00
2019-04-23T08:00:28.888Z,620.00
2019-04-23T08:01:25.209Z,628.00
2019-04-23T08:02:25.922Z,640.00
2019-04-23T08:04:29.699Z,692.00
2019-04-23T08:05:25.113Z,708.00
2019-04-23T08:06:19.248Z,744.00
2019-04-23T08:07:22.894Z,768.00
2019-04-23T08:08:26.911Z,776.00
2019-04-23T08:09:27.756Z,804.00
2019-04-23T08:10:25.915Z,832.00
2019-04-23T08:11:33.095Z,876.00
2019-04-23T08:13:22.726Z,1020.00
2019-04-23T08:14:15.379Z,948.00
2019-04-23T08:15:23.190Z,888.00
2019-04-23T08:16:29.701Z,852.00
2019-04-23T08:17:38.527Z,768.00
2019-04-23T08:18:29.550Z,780.00
2019-04-23T08:19:25.535Z,812.00
2019-04-23T08:20:21.249Z,816.00
2019-04-23T08:21:22.814Z,828.00
2019-04-23T08:23:28.303Z,888.00
2019-04-23T08:24:21.716Z,828.00
2019-04-23T08:25:20.244Z,848.00
2019-04-23T08:26:26.899Z,880.00
2019-04-23T08:27:18.640Z,1180.00
2019-04-23T08:28:34.024Z,1320.00
2019-04-23T08:30:16.261Z,2824.00
2019-04-23T08:31:27.891Z,1588.00
2019-04-23T08:33:19.184Z,1476.00
2019-04-23T08:34:31.503Z,2000.00
2019-04-23T08:35:23.236Z,1120.00
2019-04-23T08:36:31.212Z,916.00
2019-04-23T08:37:27.348Z,736.00
2019-04-23T08:38:26.146Z,668.00
2019-04-23T08:39:26.900Z,692.00
2019-04-23T08:40:20.682Z,636.00
2019-04-23T08:41:28.117Z,656.00
2019-04-23T08:43:32.955Z,792.00
2019-04-23T08:44:31.398Z,948.00
2019-04-23T08:45:32.922Z,1012.00
2019-04-23T08:46:29.289Z,1004.00
2019-04-23T08:47:26.176Z,1120.00
2019-04-23T08:49:31.268Z,960.00
2019-04-23T08:50:24.773Z,864.00
2019-04-23T08:51:38.899Z,772.00
2019-04-23T08:53:37.578Z,600.00
2019-04-23T08:54:39.752Z,560.00
2019-04-23T08:55:32.504Z,536.00
2019-04-23T08:56:20.691Z,512.00
2019-04-23T08:57:22.198Z,492.00
2019-04-23T08:58:25.043Z,492.00
2019-04-23T08:59:33.989Z,496.00
2019-04-23T09:00:24.921Z,488.00
2019-04-23T09:01:48.080Z,476.00
2019-04-23T09:02:30.862Z,452.00
2019-04-23T09:04:23.907Z,448.00
2019-04-23T09:05:28.658Z,456.00
2019-04-23T09:06:25.828Z,460.00
2019-04-23T09:09:30.817Z,496.00
2019-04-23T09:10:26.404Z,508.00
2019-04-23T09:11:35.804Z,512.00
2019-04-23T09:12:23.692Z,516.00
2019-04-23T09:14:08.753Z,576.00
2019-04-23T09:15:30.176Z,556.00
2019-04-23T09:16:23.725Z,524.00
2019-04-23T09:17:27.583Z,544.00
2019-04-23T09:18:20.940Z,596.00
2019-04-23T09:19:32.107Z,608.00
2019-04-23T09:21:23.956Z,892.00
2019-04-23T09:23:29.680Z,544.00
2019-04-23T09:24:22.768Z,444.00
2019-04-23T09:25:29.965Z,396.00
2019-04-23T09:26:11.069Z,368.00
2019-04-23T09:27:26.252Z,360.00
2019-04-23T09:29:31.830Z,344.00
2019-04-23T09:31:31.628Z,352.00
2019-04-23T09:33:36.252Z,340.00
2019-04-23T09:34:32.018Z,308.00
2019-04-23T09:35:27.570Z,264.00
2019-04-23T09:36:27.443Z,236.00
2019-04-23T09:37:26.437Z,212.00
2019-04-23T09:38:38.203Z,208.00
2019-04-23T09:40:32.102Z,268.00
2019-04-23T09:41:31.251Z,324.00
2019-04-23T09:42:33.527Z,332.00
2019-04-23T09:43:19.776Z,328.00
2019-04-23T09:44:51.077Z,320.00
2019-04-23T09:45:28.247Z,308.00
2019-04-23T09:46:24.351Z,296.00
2019-04-23T09:48:19.467Z,268.00
2019-04-23T09:48:23.750Z,280.00
2019-04-23T09:49:26.364Z,264.00
2019-04-23T09:51:22.339Z,240.00
2019-04-23T09:53:29.539Z,248.00
2019-04-23T09:54:32.499Z,260.00
2019-04-23T09:55:32.223Z,260.00
2019-04-23T09:56:23.619Z,260.00
2019-04-23T09:57:18.631Z,264.00
2019-04-23T09:58:15.088Z,264.00
2019-04-23T10:00:31.458Z,264.00
2019-04-23T10:01:25.820Z,264.00
2019-04-23T10:02:17.540Z,260.00
2019-04-23T10:03:09.262Z,268.00
2019-04-23T10:04:08.675Z,268.00
2019-04-23T10:05:11.300Z,260.00
2019-04-23T10:06:04.162Z,244.00
2019-04-23T10:07:11.216Z,220.00
2019-04-23T10:08:05.043Z,200.00
2019-04-23T10:09:01.492Z,196.00
2019-04-23T10:09:57.384Z,196.00
2019-04-23T10:10:57.457Z,212.00
2019-04-23T10:11:56.986Z,216.00
2019-04-23T10:12:58.125Z,232.00
2019-04-23T10:13:56.861Z,252.00
2019-04-23T10:15:05.414Z,256.00
2019-04-23T10:15:58.148Z,232.00
2019-04-23T10:16:58.039Z,208.00
2019-04-23T10:17:58.248Z,192.00
2019-04-23T10:18:57.372Z,176.00
2019-04-23T10:19:58.217Z,164.00
2019-04-23T10:20:56.989Z,156.00
2019-04-23T10:21:57.498Z,144.00
2019-04-23T10:22:56.995Z,132.00
2019-04-23T10:23:57.177Z,124.00
2019-04-23T10:24:57.195Z,120.00
2019-04-23T10:25:58.264Z,120.00
2019-04-23T10:26:57.798Z,120.00
2019-04-23T10:28:01.691Z,120.00
2019-04-23T10:28:58.193Z,120.00
2019-04-23T10:29:57.161Z,112.00
2019-04-23T10:30:58.611Z,116.00
2019-04-23T10:31:57.691Z,108.00
2019-04-23T10:32:57.856Z,104.00
2019-04-23T10:33:57.992Z,92.00
2019-04-23T10:35:13.066Z,88.00
2019-04-23T10:36:03.190Z,80.00
2019-04-23T10:36:57.653Z,72.00
2019-04-23T10:38:04.140Z,64.00
2019-04-23T10:39:03.551Z,60.00
2019-04-23T10:40:01.225Z,56.00
2019-04-23T10:40:58.089Z,52.00
2019-04-23T10:42:00.865Z,52.00
2019-04-23T10:42:59.672Z,52.00
2019-04-23T10:43:58.698Z,52.00
2019-04-23T10:45:12.242Z,52.00
2019-04-23T10:46:15.429Z,48.00
2019-04-23T10:47:27.145Z,52.00
2019-04-23T10:48:41.891Z,52.00
2019-04-23T10:49:41.955Z,48.00
2019-04-23T10:50:32.540Z,48.00
2019-04-23T10:51:28.613Z,48.00
2019-04-23T10:52:37.532Z,40.00
2019-04-23T10:55:25.911Z,36.00
2019-04-23T10:56:36.177Z,36.00
2019-04-23T10:57:26.477Z,36.00
2019-04-23T10:59:30.035Z,28.00
2019-04-23T11:00:26.803Z,32.00
2019-04-23T11:01:31.951Z,28.00
2019-04-23T11:03:42.108Z,28.00
2019-04-23T11:04:42.975Z,24.00
2019-04-23T11:05:36.160Z,24.00
2019-04-23T11:06:30.825Z,24.00
2019-04-23T11:08:25.594Z,16.00
2019-04-23T11:09:49.669Z,16.00
2019-04-23T11:10:22.002Z,16.00
2019-04-23T11:11:27.833Z,16.00
2019-04-23T11:12:37.024Z,16.00
2019-04-23T11:13:31.451Z,12.00
2019-04-23T11:14:34.107Z,12.00
2019-04-23T11:15:40.266Z,8.00
2019-04-23T11:17:35.673Z,8.00
2019-04-23T11:18:39.926Z,8.00
2019-04-23T11:19:32.523Z,8.00
2019-04-23T11:21:28.712Z,4.00
2019-04-23T11:23:29.123Z,4.00
2019-04-23T11:25:33.031Z,4.00
2019-04-23T11:26:38.376Z,4.00
2019-04-23T11:27:28.101Z,0.00
2019-04-23T11:28:25.751Z,4.00
2019-04-23T11:29:34.270Z,4.00
2019-04-23T11:32:47.048Z,0.00
2019-04-23T11:33:30.014Z,0.00
2019-04-23T11:34:55.190Z,0.00
2019-04-23T11:36:48.172Z,0.00
2019-04-23T11:37:40.965Z,0.00
2019-04-23T11:39:30.932Z,0.00
2019-04-23T11:40:25.536Z,0.00
2019-04-23T11:42:26.282Z,0.00
2019-04-23T11:43:28.059Z,0.00
2019-04-23T11:44:37.054Z,0.00
2019-04-23T11:45:43.039Z,0.00
2019-04-23T11:46:45.682Z,0.00
2019-04-23T11:48:14.692Z,0.00
2019-04-23T11:49:51.659Z,0.00
2019-04-23T11:52:35.758Z,0.00
2019-04-23T11:53:37.683Z,0.00
2019-04-23T11:54:32.231Z,0.00
2019-04-23T11:55:39.131Z,0.00
2019-04-23T11:57:52.466Z,0.00
2019-04-23T11:58:29.060Z,0.00
2019-04-23T12:00:39.011Z,0.00
2019-04-23T12:01:41.945Z,0.00
2019-04-23T12:02:32.598Z,0.00
2019-04-23T12:03:26.973Z,0.00
2019-04-23T12:05:35.788Z,0.00
2019-04-23T12:06:25.144Z,0.00
2019-04-23T12:07:31.150Z,0.00
2019-04-23T12:08:36.797Z,0.00
2019-04-23T12:10:47.786Z,0.00
2019-04-23T12:12:28.509Z,0.00
2019-04-23T12:14:37.147Z,0.00
2019-04-23T12:16:31.967Z,0.00
2019-04-23T12:18:35.243Z,0.00
2019-04-23T12:20:33.129Z,0.00
2019-04-23T12:21:41.684Z,0.00
2019-04-23T12:25:32.941Z,0.00
2019-04-23T12:27:30.559Z,0.00
2019-04-23T12:28:30.340Z,0.00
2019-04-23T12:29:33.868Z,0.00
2019-04-23T12:31:36.460Z,0.00
2019-04-23T12:33:36.241Z,0.00
2019-04-23T12:34:40.083Z,0.00
2019-04-23T12:35:25.714Z,0.00
2019-04-23T12:36:42.064Z,0.00
2019-04-23T12:37:39.302Z,0.00
2019-04-23T12:38:25.508Z,0.00
2019-04-23T12:39:36.246Z,0.00
2019-04-23T12:40:24.913Z,0.00
2019-04-23T12:41:31.958Z,0.00
2019-04-23T12:42:50.145Z,0.00
2019-04-23T12:43:23.320Z,0.00
2019-04-23T12:44:30.619Z,0.00
2019-04-23T12:46:29.681Z,0.00
2019-04-23T12:47:46.347Z,0.00
2019-04-23T12:48:44.749Z,0.00
2019-04-23T12:49:57.653Z,0.00
2019-04-23T12:51:38.090Z,0.00
2019-04-23T12:52:34.267Z,0.00
2019-04-23T12:53:30.450Z,0.00
2019-04-23T12:54:41.490Z,0.00
2019-04-23T12:55:36.326Z,0.00
2019-04-23T12:56:43.864Z,0.00
2019-04-23T12:58:24.786Z,0.00
2019-04-23T12:59:28.758Z,0.00
2019-04-23T13:00:36.396Z,0.00
2019-04-23T13:01:38.480Z,0.00
2019-04-23T13:02:40.230Z,0.00
2019-04-23T13:03:29.838Z,0.00
2019-04-23T13:04:39.637Z,0.00
2019-04-23T13:05:27.071Z,0.00
2019-04-23T13:06:34.756Z,0.00
2019-04-23T13:07:38.690Z,0.00
2019-04-23T13:08:46.195Z,0.00
2019-04-23T13:09:42.860Z,0.00
2019-04-23T13:10:41.842Z,0.00
2019-04-23T13:11:34.555Z,0.00
2019-04-23T13:13:35.171Z,0.00
2019-04-23T13:14:34.726Z,0.00
2019-04-23T13:15:29.222Z,0.00
2019-04-23T13:16:39.807Z,0.00
2019-04-23T13:17:42.572Z,0.00
2019-04-23T13:18:34.082Z,0.00
2019-04-23T13:19:44.812Z,0.00
2019-04-23T13:20:28.068Z,0.00
2019-04-23T13:21:45.231Z,0.00
2019-04-23T13:22:39.819Z,0.00
2019-04-23T13:23:32.511Z,0.00
2019-04-23T13:24:30.192Z,0.00
2019-04-23T13:25:34.563Z,0.00
2019-04-23T13:26:24.203Z,0.00
2019-04-23T13:27:40.030Z,0.00
2019-04-23T13:28:28.029Z,0.00
2019-04-23T13:29:41.027Z,0.00
2019-04-23T13:30:44.781Z,0.00
2019-04-23T13:31:21.738Z,0.00
2019-04-23T13:32:30.177Z,0.00
2019-04-23T13:33:40.511Z,0.00
2019-04-23T13:34:38.468Z,0.00
2019-04-23T13:36:32.798Z,0.00
2019-04-23T13:37:36.170Z,0.00
2019-04-23T13:38:40.522Z,0.00
2019-04-23T13:39:38.947Z,0.00
2019-04-23T13:40:46.416Z,0.00
2019-04-23T13:41:23.389Z,0.00
2019-04-23T13:43:36.375Z,0.00
2019-04-23T13:44:36.134Z,0.00
2019-04-23T13:46:32.983Z,0.00
2019-04-23T13:47:43.443Z,0.00
2019-04-23T13:48:19.881Z,0.00
2019-04-23T13:49:33.312Z,0.00
2019-04-23T13:53:50.289Z,0.00
2019-04-23T13:55:30.322Z,0.00
2019-04-23T13:56:36.770Z,0.00
2019-04-23T13:58:32.173Z,0.00
2019-04-23T13:59:41.764Z,0.00
2019-04-23T14:01:30.923Z,0.00
2019-04-23T14:02:40.502Z,0.00
2019-04-23T14:03:40.677Z,0.00
2019-04-23T14:04:38.881Z,0.00
2019-04-23T14:05:33.230Z,0.00
2019-04-23T14:06:39.523Z,0.00
2019-04-23T14:09:36.045Z,0.00
2019-04-23T14:10:34.236Z,0.00
2019-04-23T14:11:29.223Z,0.00
2019-04-23T14:12:31.869Z,0.00
2019-04-23T14:13:47.923Z,0.00
2019-04-23T14:15:40.534Z,0.00
2019-04-23T14:17:46.762Z,0.00
2019-04-23T14:19:26.165Z,0.00
2019-04-23T14:20:34.808Z,0.00
2019-04-23T14:22:56.258Z,0.00
2019-04-23T14:23:54.129Z,0.00
2019-04-23T14:24:38.057Z,0.00
2019-04-23T14:25:29.397Z,0.00
2019-04-23T14:28:01.326Z,0.00
2019-04-23T14:28:41.002Z,0.00
2019-04-23T14:29:39.442Z,0.00
2019-04-23T14:30:40.280Z,0.00
2019-04-23T14:31:30.123Z,0.00
2019-04-23T14:32:29.180Z,0.00
2019-04-23T14:33:52.757Z,0.00
2019-04-23T14:34:34.747Z,0.00
2019-04-23T14:35:40.077Z,0.00
2019-04-23T14:37:45.590Z,0.00
2019-04-23T14:38:35.476Z,0.00
2019-04-23T14:40:34.477Z,0.00
2019-04-23T14:41:26.148Z,0.00
2019-04-23T14:43:31.455Z,0.00
2019-04-23T14:44:31.224Z,0.00
2019-04-23T14:46:41.529Z,0.00
2019-04-23T14:48:27.684Z,0.00
2019-04-23T14:49:41.021Z,0.00
2019-04-23T14:55:06.020Z,0.00
2019-04-23T14:56:42.121Z,0.00
2019-04-23T14:58:42.577Z,0.00
2019-04-23T14:59:19.847Z,0.00
2019-04-23T15:00:37.184Z,0.00
2019-04-23T15:02:40.588Z,0.00
2019-04-23T15:04:31.980Z,0.00
2019-04-23T15:05:40.935Z,0.00
2019-04-23T15:06:50.769Z,0.00
2019-04-23T15:08:39.798Z,0.00
2019-04-23T15:09:33.971Z,0.00
2019-04-23T15:10:40.915Z,0.00
2019-04-23T15:12:40.306Z,0.00
2019-04-23T15:14:35.679Z,0.00
2019-04-23T15:15:31.862Z,0.00
2019-04-23T15:16:31.739Z,0.00
2019-04-23T15:17:34.107Z,0.00
2019-04-23T15:18:39.138Z,0.00
2019-04-23T15:19:37.034Z,0.00
2019-04-23T15:20:32.481Z,0.00
2019-04-23T15:21:48.796Z,0.00
2019-04-23T15:23:40.715Z,0.00
2019-04-23T15:24:30.650Z,0.00
2019-04-23T15:27:24.749Z,0.00
2019-04-23T15:28:08.857Z,0.00
2019-04-23T15:29:22.597Z,0.00